Time;durP1;ratioP1;P1;durP2;ratioP2;P2;SDS_P1;SDS_P2;PMS_P1;PMS_P2;Temp;Humidity;BMP_temperature;BMP_pressure;BME280_temperature;BME280_humidity;BME280_pressure;Samples;Min_cycle;Max_cycle;Signal;HPM_P1;HPM_P2
2021/09/28 00:00:06;;;;;;;1.10;1.00;;;12.10;99.90;;;;;;481779;245;28087;-75
2021/09/28 00:02:08;;;;;;;1.20;1.10;;;12.10;99.90;;;;;;481796;245;28230;-75
2021/09/28 00:04:09;;;;;;;1.83;1.10;;;12.10;99.90;;;;;;481791;245;28561;-75
2021/09/28 00:06:10;;;;;;;1.10;1.10;;;12.10;99.90;;;;;;481792;245;28095;-76
2021/09/28 00:08:11;;;;;;;0.90;0.90;;;12.00;99.90;;;;;;481811;245;28502;-75
2021/09/28 00:10:13;;;;;;;1.20;1.10;;;12.00;99.90;;;;;;481816;245;28109;-75
2021/09/28 00:12:14;;;;;;;1.17;1.07;;;12.00;99.90;;;;;;481829;245;28038;-75
2021/09/28 00:14:15;;;;;;;4.00;1.20;;;12.00;99.90;;;;;;481802;245;28667;-75
2021/09/28 00:16:16;;;;;;;1.23;1.10;;;12.00;99.90;;;;;;481828;246;28713;-75
2021/09/28 00:18:18;;;;;;;2.27;1.20;;;11.90;99.90;;;;;;481821;246;28714;-75
2021/09/28 00:20:19;;;;;;;1.20;1.10;;;11.90;99.90;;;;;;481792;246;28671;-76
2021/09/28 00:22:20;;;;;;;1.00;1.00;;;11.90;99.90;;;;;;481799;245;28072;-76
2021/09/28 00:24:21;;;;;;;1.10;1.10;;;11.90;99.90;;;;;;481806;245;28212;-76
2021/09/28 00:26:23;;;;;;;1.30;1.20;;;11.90;99.90;;;;;;481811;245;28123;-75
2021/09/28 00:28:27;;;;;;;1.10;1.10;;;11.90;99.90;;;;;;481819;245;28011;-75
2021/09/28 00:30:25;;;;;;;1.00;1.00;;;11.90;99.90;;;;;;481490;247;27774;-75
2021/09/28 00:32:26;;;;;;;1.10;1.10;;;11.90;99.90;;;;;;481842;246;27978;-75
2021/09/28 00:34:28;;;;;;;1.20;1.10;;;11.80;99.90;;;;;;481775;245;28104;-75
2021/09/28 00:36:29;;;;;;;1.87;1.10;;;11.80;99.90;;;;;;481760;245;27907;-76
2021/09/28 00:38:30;;;;;;;1.27;1.07;;;11.70;99.90;;;;;;481759;246;28738;-75
2021/09/28 00:40:31;;;;;;;1.53;1.20;;;11.70;99.90;;;;;;481777;246;28629;-76
2021/09/28 00:42:33;;;;;;;1.20;1.20;;;11.70;99.90;;;;;;481791;245;28700;-76
2021/09/28 00:44:34;;;;;;;4.00;1.50;;;11.70;99.90;;;;;;481814;245;28669;-75
2021/09/28 00:46:35;;;;;;;1.20;1.17;;;11.70;99.90;;;;;;481799;245;28082;-76
2021/09/28 00:48:36;;;;;;;3.43;1.13;;;11.60;99.90;;;;;;481792;245;28151;-75
2021/09/28 00:50:38;;;;;;;1.23;1.00;;;11.70;99.90;;;;;;481752;245;27932;-75
2021/09/28 00:52:39;;;;;;;0.90;0.90;;;11.70;99.90;;;;;;481790;245;27912;-75
2021/09/28 00:54:40;;;;;;;2.40;1.30;;;11.70;99.90;;;;;;481817;245;28158;-75
2021/09/28 00:56:41;;;;;;;1.70;1.17;;;11.70;99.90;;;;;;481827;245;27745;-76
2021/09/28 00:58:43;;;;;;;1.20;1.13;;;11.70;99.90;;;;;;481778;245;27909;-75
2021/09/28 01:00:44;;;;;;;1.23;1.20;;;11.70;99.90;;;;;;481785;245;28210;-76
2021/09/28 01:02:45;;;;;;;2.30;1.20;;;11.70;99.90;;;;;;481800;246;28843;-75
2021/09/28 01:04:46;;;;;;;1.63;1.20;;;11.80;99.90;;;;;;481805;245;28547;-76
2021/09/28 01:06:48;;;;;;;2.33;1.40;;;11.70;99.90;;;;;;481781;245;28634;-76
2021/09/28 01:08:49;;;;;;;1.37;1.27;;;11.80;99.90;;;;;;481782;246;28497;-76
2021/09/28 01:10:50;;;;;;;1.30;1.27;;;11.90;99.90;;;;;;481796;245;27983;-75
2021/09/28 01:12:51;;;;;;;1.17;1.10;;;11.90;99.90;;;;;;481830;245;27905;-75
2021/09/28 01:14:53;;;;;;;1.30;1.20;;;11.90;99.90;;;;;;481807;245;28249;-76
2021/09/28 01:16:54;;;;;;;1.30;1.20;;;11.90;99.90;;;;;;481794;246;28223;-75
2021/09/28 01:18:55;;;;;;;2.87;1.63;;;12.00;99.90;;;;;;481807;245;28174;-76
2021/09/28 01:20:56;;;;;;;2.57;1.70;;;12.00;99.90;;;;;;481793;245;28197;-75
2021/09/28 01:22:58;;;;;;;2.10;1.80;;;12.00;99.90;;;;;;481810;245;27973;-75
2021/09/28 01:24:59;;;;;;;3.43;1.60;;;12.00;99.90;;;;;;481799;245;28047;-75
2021/09/28 01:27:00;;;;;;;2.20;1.83;;;12.00;99.90;;;;;;481780;245;28413;-76
2021/09/28 01:29:01;;;;;;;1.87;1.73;;;12.00;99.90;;;;;;481773;245;29507;-76
2021/09/28 01:31:03;;;;;;;1.50;1.40;;;11.90;99.90;;;;;;481792;245;28792;-76
2021/09/28 01:33:04;;;;;;;1.67;1.57;;;12.00;99.90;;;;;;481786;245;29254;-75
2021/09/28 01:35:05;;;;;;;2.00;1.80;;;12.00;99.90;;;;;;481789;246;28262;-75
2021/09/28 01:37:06;;;;;;;4.30;2.30;;;12.00;99.90;;;;;;481762;246;28117;-75
2021/09/28 01:39:08;;;;;;;1.77;1.67;;;12.00;99.90;;;;;;481794;246;28004;-76
2021/09/28 01:41:09;;;;;;;2.00;1.90;;;12.00;99.90;;;;;;481817;245;28175;-75
2021/09/28 01:43:10;;;;;;;2.00;1.90;;;12.00;99.90;;;;;;481802;245;28314;-75
2021/09/28 01:45:11;;;;;;;2.50;2.17;;;12.10;99.90;;;;;;481797;245;28154;-75
2021/09/28 01:47:13;;;;;;;2.20;2.00;;;12.00;99.90;;;;;;481755;245;27956;-75
2021/09/28 01:49:14;;;;;;;3.73;1.80;;;12.00;99.90;;;;;;481772;246;28181;-75
2021/09/28 01:51:15;;;;;;;2.10;2.00;;;12.10;99.90;;;;;;481777;247;28334;-76
2021/09/28 01:53:16;;;;;;;4.13;2.00;;;12.00;99.90;;;;;;481795;245;28693;-75
2021/09/28 01:55:18;;;;;;;6.80;2.23;;;12.10;99.90;;;;;;481782;245;28646;-76
2021/09/28 01:57:19;;;;;;;2.20;1.87;;;12.00;99.90;;;;;;481770;245;30450;-75
2021/09/28 01:59:20;;;;;;;2.27;1.90;;;12.00;99.90;;;;;;481815;245;28200;-75
2021/09/28 02:01:21;;;;;;;2.03;1.93;;;12.10;99.90;;;;;;481800;245;28151;-75
2021/09/28 02:03:23;;;;;;;1.90;1.70;;;12.10;99.90;;;;;;481789;245;28140;-76
2021/09/28 02:05:24;;;;;;;1.80;1.70;;;12.10;99.90;;;;;;481771;246;28140;-74
2021/09/28 02:07:25;;;;;;;2.57;2.37;;;12.00;99.90;;;;;;481770;245;28494;-76
2021/09/28 02:09:26;;;;;;;4.33;2.57;;;11.90;99.90;;;;;;481797;245;28080;-76
2021/09/28 02:11:28;;;;;;;3.93;2.77;;;11.80;99.90;;;;;;481780;245;28199;-75
2021/09/28 02:13:29;;;;;;;2.53;2.33;;;11.80;99.90;;;;;;481778;245;28328;-76
2021/09/28 02:15:30;;;;;;;2.40;2.10;;;11.80;99.90;;;;;;481773;245;28157;-76
2021/09/28 02:17:31;;;;;;;1.80;1.70;;;11.80;99.90;;;;;;481805;247;28630;-75
2021/09/28 02:19:33;;;;;;;1.90;1.80;;;11.80;99.90;;;;;;481798;245;28915;-75
2021/09/28 02:21:34;;;;;;;3.97;1.97;;;11.90;99.90;;;;;;481780;245;28302;-75
2021/09/28 02:23:35;;;;;;;2.10;1.90;;;11.90;99.90;;;;;;481720;245;28528;-75
2021/09/28 02:25:36;;;;;;;1.90;1.80;;;11.90;99.90;;;;;;481691;245;27981;-75
2021/09/28 02:27:38;;;;;;;4.10;2.37;;;11.90;99.90;;;;;;481849;245;28019;-76
2021/09/28 02:29:39;;;;;;;2.80;2.37;;;12.00;99.90;;;;;;481807;245;27888;-75
2021/09/28 02:31:40;;;;;;;2.20;2.00;;;11.90;99.90;;;;;;481808;243;28023;-76
2021/09/28 02:33:41;;;;;;;2.57;2.37;;;11.90;99.90;;;;;;481807;245;28042;-76
2021/09/28 02:35:43;;;;;;;2.90;2.10;;;11.90;99.90;;;;;;481796;246;27987;-76
2021/09/28 02:37:44;;;;;;;2.50;2.30;;;11.90;99.90;;;;;;481795;246;28070;-76
2021/09/28 02:39:45;;;;;;;4.60;1.93;;;11.90;99.90;;;;;;481760;245;28236;-76
2021/09/28 02:41:46;;;;;;;2.10;1.90;;;11.90;99.90;;;;;;481769;245;28926;-76
2021/09/28 02:43:48;;;;;;;2.13;1.93;;;11.80;99.90;;;;;;481762;245;29449;-75
2021/09/28 02:45:50;;;;;;;2.57;2.17;;;11.80;99.90;;;;;;481812;245;28462;-75
2021/09/28 02:47:50;;;;;;;2.33;2.10;;;11.70;99.90;;;;;;481741;247;28700;-75
2021/09/28 02:49:51;;;;;;;2.20;2.10;;;11.70;99.90;;;;;;481779;245;28044;-75
2021/09/28 02:51:53;;;;;;;8.00;2.90;;;11.70;99.90;;;;;;481779;246;28032;-75
2021/09/28 02:53:54;;;;;;;2.93;2.10;;;11.70;99.90;;;;;;481779;245;28040;-75
2021/09/28 02:55:55;;;;;;;2.50;2.17;;;11.70;99.90;;;;;;481781;245;28028;-75
2021/09/28 02:57:56;;;;;;;4.73;2.40;;;11.80;99.90;;;;;;481826;245;27989;-77
2021/09/28 02:59:58;;;;;;;2.80;2.03;;;11.70;99.90;;;;;;481777;245;28095;-77
2021/09/28 03:01:59;;;;;;;2.60;2.40;;;11.70;99.90;;;;;;481790;246;28254;-77
2021/09/28 03:04:00;;;;;;;2.57;2.37;;;11.70;99.90;;;;;;481809;245;28294;-77
2021/09/28 03:06:01;;;;;;;2.47;2.27;;;11.70;99.90;;;;;;481866;245;28012;-75
2021/09/28 03:08:03;;;;;;;2.17;2.00;;;11.70;99.90;;;;;;481781;245;28623;-75
2021/09/28 03:10:04;;;;;;;2.27;2.07;;;11.70;99.90;;;;;;481745;247;28663;-75
2021/09/28 03:12:05;;;;;;;2.83;2.60;;;11.60;99.90;;;;;;481758;245;28669;-75
2021/09/28 03:14:06;;;;;;;2.63;2.30;;;11.60;99.90;;;;;;481771;246;28038;-75
2021/09/28 03:16:08;;;;;;;2.50;2.20;;;11.60;99.90;;;;;;481770;245;28140;-75
2021/09/28 03:18:09;;;;;;;4.23;2.47;;;11.60;99.90;;;;;;481788;246;28128;-76
2021/09/28 03:20:10;;;;;;;2.90;2.00;;;11.60;99.90;;;;;;481758;245;28334;-75
2021/09/28 03:22:11;;;;;;;4.13;2.27;;;11.60;99.90;;;;;;481789;245;28182;-75
2021/09/28 03:24:13;;;;;;;2.40;2.20;;;11.50;99.90;;;;;;481809;247;28261;-76
2021/09/28 03:26:14;;;;;;;2.60;2.40;;;11.50;99.90;;;;;;481770;245;27891;-76
2021/09/28 03:28:16;;;;;;;3.20;2.40;;;11.40;99.90;;;;;;481772;245;28330;-75
2021/09/28 03:30:16;;;;;;;2.70;2.47;;;11.40;99.90;;;;;;481691;244;28314;-75
2021/09/28 03:32:18;;;;;;;2.70;2.50;;;11.40;99.90;;;;;;481794;245;28524;-75
2021/09/28 03:34:19;;;;;;;2.73;2.43;;;11.40;99.90;;;;;;481827;245;28735;-75
2021/09/28 03:36:20;;;;;;;2.80;2.60;;;11.40;99.90;;;;;;481799;246;28758;-75
2021/09/28 03:38:21;;;;;;;4.80;2.77;;;11.40;99.90;;;;;;481777;245;28159;-76
2021/09/28 03:40:23;;;;;;;3.20;2.63;;;11.40;99.90;;;;;;481784;245;28203;-76
2021/09/28 03:42:24;;;;;;;2.83;2.63;;;11.40;99.90;;;;;;481794;246;28028;-76
2021/09/28 03:44:25;;;;;;;3.20;3.00;;;11.40;99.90;;;;;;481775;246;27802;-76
2021/09/28 03:46:26;;;;;;;3.37;2.53;;;11.40;99.90;;;;;;481798;245;27885;-75
2021/09/28 03:48:28;;;;;;;4.33;3.17;;;11.40;99.90;;;;;;481887;245;28186;-76
2021/09/28 03:50:29;;;;;;;3.83;2.87;;;11.40;99.90;;;;;;481971;245;28122;-75
2021/09/28 03:52:30;;;;;;;3.40;2.80;;;11.40;99.90;;;;;;482072;245;27971;-76
2021/09/28 03:54:31;;;;;;;4.27;2.93;;;11.40;99.90;;;;;;482077;246;28381;-76
2021/09/28 03:56:33;;;;;;;3.47;2.90;;;11.40;99.90;;;;;;482091;245;28593;-75
2021/09/28 03:58:34;;;;;;;3.13;2.53;;;11.40;99.90;;;;;;482067;245;27922;-76
2021/09/28 04:00:37;;;;;;;3.63;3.03;;;11.40;99.90;;;;;;482048;245;28559;-76
2021/09/28 04:02:36;;;;;;;4.60;3.27;;;11.40;99.90;;;;;;481891;246;28235;-76
2021/09/28 04:04:38;;;;;;;4.13;3.20;;;11.40;99.90;;;;;;481896;246;28184;-76
2021/09/28 04:06:39;;;;;;;4.70;3.03;;;11.30;99.90;;;;;;481917;245;28228;-75
2021/09/28 04:08:40;;;;;;;4.43;3.57;;;11.40;99.90;;;;;;481833;245;27949;-75
2021/09/28 04:10:42;;;;;;;4.33;3.87;;;11.30;99.90;;;;;;481887;245;28376;-75
2021/09/28 04:12:43;;;;;;;5.60;4.90;;;11.30;99.90;;;;;;481888;245;28143;-75
2021/09/28 04:14:45;;;;;;;6.40;4.40;;;11.20;99.90;;;;;;481895;245;28075;-76
2021/09/28 04:16:45;;;;;;;5.87;5.10;;;11.20;99.90;;;;;;482056;247;28174;-76
2021/09/28 04:18:47;;;;;;;8.70;5.37;;;11.20;99.90;;;;;;482090;245;28108;-76
2021/09/28 04:20:49;;;;;;;5.73;4.80;;;11.20;99.90;;;;;;482171;245;28619;-76
2021/09/28 04:22:49;;;;;;;7.63;5.00;;;11.30;99.90;;;;;;482118;246;28521;-76
2021/09/28 04:24:50;;;;;;;6.57;5.70;;;11.30;99.90;;;;;;482017;245;28345;-76
2021/09/28 04:26:52;;;;;;;6.00;5.03;;;11.30;99.90;;;;;;481933;245;28875;-76
2021/09/28 04:28:53;;;;;;;8.17;6.47;;;11.30;99.90;;;;;;481896;245;27854;-75
2021/09/28 04:30:54;;;;;;;8.07;5.87;;;11.20;99.90;;;;;;481861;245;27891;-75
2021/09/28 04:32:55;;;;;;;5.80;5.20;;;11.20;99.90;;;;;;481861;245;28069;-75
2021/09/28 04:34:57;;;;;;;10.23;6.07;;;11.10;99.90;;;;;;481817;245;27652;-76
2021/09/28 04:36:58;;;;;;;9.30;7.17;;;11.20;99.90;;;;;;481863;247;27904;-75
2021/09/28 04:38:59;;;;;;;9.47;6.63;;;11.20;99.90;;;;;;481938;245;27951;-75
2021/09/28 04:41:00;;;;;;;10.60;6.57;;;11.10;99.90;;;;;;481857;245;27958;-75
2021/09/28 04:43:02;;;;;;;9.37;6.70;;;11.10;99.90;;;;;;481897;245;28237;-75
2021/09/28 04:45:04;;;;;;;9.90;6.47;;;11.10;99.90;;;;;;481847;246;28692;-75
2021/09/28 04:47:04;;;;;;;7.83;6.27;;;11.10;99.90;;;;;;481802;246;28359;-76
2021/09/28 04:49:05;;;;;;;7.83;6.10;;;11.10;99.90;;;;;;481807;245;28263;-76
2021/09/28 04:51:07;;;;;;;8.17;5.67;;;11.20;99.90;;;;;;481810;245;28006;-75
2021/09/28 04:53:08;;;;;;;12.40;6.00;;;11.20;99.90;;;;;;481797;245;28119;-75
2021/09/28 04:55:09;;;;;;;11.20;6.00;;;11.20;99.90;;;;;;481790;245;27929;-76
2021/09/28 04:57:10;;;;;;;8.23;6.70;;;11.20;99.90;;;;;;481914;245;28144;-75
2021/09/28 04:59:12;;;;;;;8.30;6.80;;;11.10;99.90;;;;;;481817;245;28035;-77
2021/09/28 05:01:13;;;;;;;8.30;7.00;;;11.10;99.90;;;;;;482054;245;28079;-76
2021/09/28 05:03:14;;;;;;;7.47;6.60;;;11.10;99.90;;;;;;481988;245;28028;-77
2021/09/28 05:05:15;;;;;;;7.07;6.10;;;11.10;99.90;;;;;;481930;245;27902;-77
2021/09/28 05:07:17;;;;;;;7.73;6.10;;;11.20;99.90;;;;;;482252;245;28053;-74
2021/09/28 05:09:18;;;;;;;10.13;7.03;;;11.20;99.90;;;;;;481887;245;28336;-77
2021/09/28 05:11:19;;;;;;;10.13;6.23;;;11.20;99.90;;;;;;480316;240;28660;-76
2021/09/28 05:13:20;;;;;;;11.13;6.63;;;11.20;99.90;;;;;;477816;248;28065;-76
2021/09/28 05:15:22;;;;;;;8.40;6.70;;;11.20;99.90;;;;;;477897;248;27763;-76
2021/09/28 05:17:23;;;;;;;7.67;6.20;;;11.10;99.90;;;;;;477869;248;27905;-77
2021/09/28 05:19:24;;;;;;;8.27;6.40;;;11.10;99.90;;;;;;477822;248;27936;-77
2021/09/28 05:21:26;;;;;;;8.67;6.20;;;11.10;99.90;;;;;;477817;248;28047;-76
2021/09/28 05:23:27;;;;;;;9.53;6.97;;;11.20;99.90;;;;;;477855;248;28032;-77
2021/09/28 05:25:28;;;;;;;8.27;7.13;;;11.20;99.90;;;;;;477837;248;28129;-76
2021/09/28 05:27:29;;;;;;;10.43;6.70;;;11.20;99.90;;;;;;477838;248;28122;-77
2021/09/28 05:29:32;;;;;;;9.60;6.83;;;11.30;99.90;;;;;;477824;248;28617;-76
2021/09/28 05:31:32;;;;;;;8.33;6.40;;;11.30;99.90;;;;;;477793;248;28573;-77
2021/09/28 05:33:33;;;;;;;8.30;7.20;;;11.30;99.90;;;;;;477889;248;28396;-76
2021/09/28 05:35:34;;;;;;;7.00;5.90;;;11.20;99.90;;;;;;477823;248;28095;-77
2021/09/28 05:37:35;;;;;;;9.73;6.77;;;11.20;99.90;;;;;;477824;248;28094;-77
2021/09/28 05:39:37;;;;;;;9.10;6.50;;;11.20;99.90;;;;;;477780;248;28012;-76
2021/09/28 05:41:38;;;;;;;8.97;7.37;;;11.20;99.90;;;;;;477827;247;28217;-76
2021/09/28 05:43:39;;;;;;;8.80;6.67;;;11.20;99.90;;;;;;477880;248;28076;-76
2021/09/28 05:45:40;;;;;;;12.70;6.80;;;11.20;99.90;;;;;;477822;248;27915;-77
2021/09/28 05:47:42;;;;;;;8.80;6.50;;;11.20;99.90;;;;;;477835;248;28284;-77
2021/09/28 05:49:43;;;;;;;8.47;6.37;;;11.20;99.90;;;;;;477837;248;28197;-77
2021/09/28 05:51:44;;;;;;;13.57;6.20;;;11.20;99.90;;;;;;477843;248;28195;-76
2021/09/28 05:53:45;;;;;;;9.00;7.03;;;11.30;99.90;;;;;;477889;249;28607;-77
2021/09/28 05:55:47;;;;;;;11.43;6.40;;;11.30;99.90;;;;;;477831;248;28434;-76
2021/09/28 05:57:48;;;;;;;9.47;6.60;;;11.30;99.90;;;;;;477848;248;28183;-76
2021/09/28 05:59:49;;;;;;;8.63;6.80;;;11.30;99.90;;;;;;477812;248;28343;-77
2021/09/28 06:01:50;;;;;;;11.30;7.30;;;11.30;99.90;;;;;;477821;248;28198;-76
2021/09/28 06:03:52;;;;;;;7.03;5.90;;;11.30;99.90;;;;;;477855;248;28120;-77
2021/09/28 06:05:53;;;;;;;9.13;6.47;;;11.30;99.90;;;;;;477755;248;27909;-77
2021/09/28 06:07:54;;;;;;;9.17;6.30;;;11.30;99.90;;;;;;477764;248;28057;-76
2021/09/28 06:09:55;;;;;;;9.00;6.70;;;11.30;99.90;;;;;;477789;248;28042;-77
2021/09/28 06:11:57;;;;;;;7.70;6.57;;;11.40;99.90;;;;;;477769;248;28169;-76
2021/09/28 06:13:58;;;;;;;7.40;6.63;;;11.40;99.90;;;;;;477798;248;28055;-77
2021/09/28 06:16:00;;;;;;;8.13;7.23;;;11.40;99.90;;;;;;477796;248;28550;-76
2021/09/28 06:18:00;;;;;;;7.73;6.20;;;11.40;99.90;;;;;;477796;248;28596;-77
2021/09/28 06:20:02;;;;;;;10.50;6.97;;;11.30;99.90;;;;;;477791;248;28692;-77
2021/09/28 06:22:03;;;;;;;8.40;6.80;;;11.40;99.90;;;;;;477807;248;28093;-76
2021/09/28 06:24:04;;;;;;;7.03;6.33;;;11.40;99.90;;;;;;477804;248;28017;-76
2021/09/28 06:26:05;;;;;;;11.43;7.30;;;11.40;99.90;;;;;;477785;248;27995;-77
2021/09/28 06:28:07;;;;;;;8.87;6.43;;;11.30;99.90;;;;;;477828;248;27939;-77
2021/09/28 06:30:08;;;;;;;9.40;7.07;;;11.20;99.90;;;;;;477796;249;28174;-76
2021/09/28 06:32:09;;;;;;;9.07;6.40;;;11.10;99.90;;;;;;477805;248;28054;-76
2021/09/28 06:34:10;;;;;;;8.50;6.60;;;11.00;99.90;;;;;;477796;248;28152;-77
2021/09/28 06:36:12;;;;;;;7.93;6.03;;;11.00;99.90;;;;;;477746;249;27861;-76
2021/09/28 06:38:13;;;;;;;8.60;6.10;;;11.10;99.90;;;;;;477671;249;28461;-77
2021/09/28 06:40:14;;;;;;;8.60;6.10;;;11.20;99.90;;;;;;477773;248;28658;-76
2021/09/28 06:42:15;;;;;;;7.30;5.97;;;11.20;99.90;;;;;;477788;248;28581;-76
2021/09/28 06:44:17;;;;;;;8.80;6.73;;;11.30;99.90;;;;;;477789;248;28527;-76
2021/09/28 06:46:18;;;;;;;8.07;6.87;;;11.40;99.90;;;;;;477757;248;28171;-77
2021/09/28 06:48:19;;;;;;;8.37;6.57;;;11.40;99.90;;;;;;477786;248;28192;-77
2021/09/28 06:50:20;;;;;;;8.90;6.43;;;11.50;99.90;;;;;;477766;248;28177;-76
2021/09/28 06:52:22;;;;;;;7.70;6.83;;;11.50;99.90;;;;;;477785;248;28001;-77
2021/09/28 06:54:23;;;;;;;8.83;6.93;;;11.60;99.90;;;;;;477807;249;28104;-76
2021/09/28 06:56:24;;;;;;;11.70;6.57;;;11.60;99.90;;;;;;477779;248;28008;-77
2021/09/28 06:58:25;;;;;;;10.70;6.80;;;11.70;99.90;;;;;;477832;248;27893;-77
2021/09/28 07:00:27;;;;;;;8.17;6.07;;;11.70;99.90;;;;;;477814;248;28120;-77
2021/09/28 07:02:28;;;;;;;9.40;6.57;;;11.60;99.90;;;;;;477841;248;28598;-76
2021/09/28 07:04:29;;;;;;;10.47;7.37;;;11.70;99.90;;;;;;477746;248;28775;-77
2021/09/28 07:06:30;;;;;;;10.50;7.70;;;11.60;99.90;;;;;;477820;248;28867;-77
2021/09/28 07:08:32;;;;;;;10.77;7.87;;;11.70;99.90;;;;;;477824;249;28122;-76
2021/09/28 07:10:33;;;;;;;9.93;6.80;;;11.60;99.90;;;;;;477849;248;28044;-76
2021/09/28 07:12:35;;;;;;;10.63;7.17;;;11.70;99.90;;;;;;477819;248;28208;-76
2021/09/28 07:14:35;;;;;;;6.77;6.03;;;11.70;99.90;;;;;;477807;248;28194;-76
2021/09/28 07:16:37;;;;;;;8.10;6.10;;;11.90;99.90;;;;;;477852;248;28345;-76
2021/09/28 07:18:38;;;;;;;7.10;5.80;;;11.90;99.90;;;;;;477840;248;28120;-76
2021/09/28 07:20:40;;;;;;;5.70;5.20;;;12.00;99.90;;;;;;477723;248;28504;-77
2021/09/28 07:22:40;;;;;;;7.47;5.63;;;12.00;99.90;;;;;;477729;249;28234;-77
2021/09/28 07:24:42;;;;;;;7.57;5.60;;;12.00;99.90;;;;;;477821;248;28618;-77
2021/09/28 07:26:44;;;;;;;7.60;5.50;;;;;;;;;;477800;248;28733;-76
2021/09/28 07:28:45;;;;;;;7.53;5.23;;;12.00;99.90;;;;;;477778;248;27160;-76
2021/09/28 07:30:47;;;;;;;5.30;4.80;;;11.90;99.90;;;;;;477758;248;28222;-76
2021/09/28 07:32:48;;;;;;;5.70;5.00;;;11.90;99.90;;;;;;477825;248;28220;-76
2021/09/28 07:34:49;;;;;;;6.20;5.30;;;11.90;99.90;;;;;;477809;248;28609;-76
2021/09/28 07:36:50;;;;;;;7.00;5.70;;;11.90;99.90;;;;;;477733;248;28711;-76
2021/09/28 07:38:52;;;;;;;7.30;5.90;;;11.90;99.90;;;;;;477739;248;28865;-77
2021/09/28 07:40:53;;;;;;;7.50;5.60;;;11.90;99.90;;;;;;477722;248;29664;-77
2021/09/28 07:42:54;;;;;;;7.23;5.47;;;11.90;99.90;;;;;;477716;249;28198;-77
2021/09/28 07:44:56;;;;;;;6.27;5.00;;;12.00;99.90;;;;;;477722;248;28015;-77
2021/09/28 07:46:58;;;;;;;6.13;5.27;;;12.00;99.90;;;;;;477693;248;28390;-76
2021/09/28 07:48:58;;;;;;;10.93;5.93;;;12.20;99.90;;;;;;477662;248;28142;-77
2021/09/28 07:51:00;;;;;;;6.93;5.03;;;12.30;99.90;;;;;;477710;248;28384;-77
2021/09/28 07:53:01;;;;;;;8.47;5.57;;;12.30;99.90;;;;;;477723;248;28447;-77
2021/09/28 07:55:02;;;;;;;13.30;6.93;;;12.20;99.90;;;;;;477669;249;28388;-77
2021/09/28 07:57:03;;;;;;;9.97;5.93;;;12.20;99.90;;;;;;477682;248;28365;-76
2021/09/28 07:59:07;;;;;;;9.20;5.97;;;12.20;99.90;;;;;;477673;248;28643;-76
2021/09/28 08:01:05;;;;;;;6.40;5.57;;;12.10;99.90;;;;;;477712;248;29067;-76
2021/09/28 08:03:07;;;;;;;7.03;5.07;;;12.30;99.90;;;;;;477719;248;28706;-76
2021/09/28 08:05:08;;;;;;;8.63;4.87;;;12.40;99.90;;;;;;477651;248;28372;-76
2021/09/28 08:07:12;;;;;;;6.23;5.10;;;12.50;99.90;;;;;;477699;248;28065;-77
2021/09/28 08:09:10;;;;;;;6.43;4.27;;;12.70;99.90;;;;;;477705;248;28361;-77
2021/09/28 08:11:12;;;;;;;5.43;4.67;;;12.80;99.90;;;;;;477709;248;28088;-76
2021/09/28 08:13:13;;;;;;;5.10;4.60;;;12.80;99.90;;;;;;477684;248;28883;-77
2021/09/28 08:15:14;;;;;;;7.67;5.13;;;12.80;99.90;;;;;;477747;248;28564;-77
2021/09/28 08:17:15;;;;;;;7.80;4.60;;;12.90;99.90;;;;;;477691;248;28184;-77
2021/09/28 08:19:17;;;;;;;5.27;4.60;;;13.00;99.90;;;;;;477665;248;28190;-76
2021/09/28 08:21:18;;;;;;;4.80;4.30;;;13.00;99.90;;;;;;477713;249;28715;-77
2021/09/28 08:23:20;;;;;;;6.70;4.70;;;13.00;99.90;;;;;;477711;248;28688;-76
2021/09/28 08:25:24;;;;;;;4.40;4.00;;;13.00;99.90;;;;;;477666;248;28727;-77
2021/09/28 08:29:41;;;;;;;5.67;4.60;;;13.00;99.90;;;;;;477713;248;28593;-77
2021/09/28 08:31:43;;;;;;;7.80;4.97;;;13.10;99.90;;;;;;477673;248;28251;-76
2021/09/28 08:33:44;;;;;;;5.20;4.50;;;13.10;99.90;;;;;;477706;248;28186;-77
2021/09/28 08:35:45;;;;;;;9.40;4.80;;;13.10;99.90;;;;;;477712;248;28147;-76
2021/09/28 08:37:46;;;;;;;4.20;3.80;;;13.10;99.90;;;;;;477712;248;28167;-77
2021/09/28 08:39:48;;;;;;;9.70;4.20;;;13.10;99.90;;;;;;477720;248;28138;-76
2021/09/28 08:41:51;;;;;;;4.70;4.20;;;;;;;;;;477723;248;28411;-76
2021/09/28 08:43:51;;;;;;;5.70;3.77;;;13.10;99.90;;;;;;477710;248;26516;-75
2021/09/28 08:45:53;;;;;;;5.00;4.07;;;13.20;99.90;;;;;;477705;248;28148;-76
2021/09/28 08:47:54;;;;;;;5.03;3.90;;;13.20;99.90;;;;;;477674;248;28221;-76
2021/09/28 08:49:55;;;;;;;6.97;4.17;;;13.30;99.90;;;;;;477673;248;28161;-76
2021/09/28 08:51:57;;;;;;;4.00;3.60;;;13.50;99.90;;;;;;477720;248;28626;-76
2021/09/28 08:53:59;;;;;;;4.40;3.70;;;;;;;;;;477702;248;28299;-76
2021/09/28 08:56:00;;;;;;;4.97;3.97;;;13.50;99.90;;;;;;477690;248;26591;-77
2021/09/28 08:58:01;;;;;;;6.40;4.23;;;13.60;99.90;;;;;;477698;248;28236;-76
2021/09/28 09:00:03;;;;;;;7.70;4.07;;;13.70;99.90;;;;;;477708;248;28260;-78
2021/09/28 09:02:08;;;;;;;8.33;5.20;;;13.90;99.90;;;;;;477641;248;28265;-76
2021/09/28 09:04:05;;;;;;;4.83;3.97;;;14.00;99.90;;;;;;477571;248;28743;-78
2021/09/28 09:06:09;;;;;;;5.13;4.30;;;14.10;99.90;;;;;;477669;248;29605;-76
2021/09/28 09:08:13;;;;;;;4.20;3.67;;;14.00;99.90;;;;;;477693;248;29014;-76
2021/09/28 09:10:12;;;;;;;5.07;4.37;;;14.00;99.90;;;;;;477660;248;29241;-76
2021/09/28 09:12:13;;;;;;;5.87;3.67;;;14.10;99.90;;;;;;477685;248;28387;-76
2021/09/28 09:14:15;;;;;;;4.30;3.60;;;14.00;99.90;;;;;;477676;248;28432;-76
2021/09/28 09:16:16;;;;;;;5.30;3.50;;;14.00;99.90;;;;;;477703;248;28967;-76
2021/09/28 09:18:17;;;;;;;4.83;3.43;;;14.10;99.90;;;;;;477748;248;28602;-76
2021/09/28 09:20:18;;;;;;;3.90;3.07;;;14.20;99.90;;;;;;477669;248;28504;-76
2021/09/28 09:22:19;;;;;;;5.40;2.97;;;14.30;99.90;;;;;;477698;248;28816;-76
2021/09/28 09:24:21;;;;;;;3.33;2.77;;;14.30;99.90;;;;;;477658;248;28299;-76
2021/09/28 09:26:22;;;;;;;3.60;3.10;;;14.40;99.90;;;;;;477719;248;28436;-75
2021/09/28 09:28:30;;;;;;;3.60;2.87;;;14.20;99.90;;;;;;477703;248;28805;-77
2021/09/28 09:30:26;;;;;;;3.93;2.90;;;14.30;99.90;;;;;;477676;248;28873;-77
2021/09/28 09:32:26;;;;;;;3.97;2.57;;;14.30;99.90;;;;;;477648;249;29365;-76
2021/09/28 09:34:27;;;;;;;3.90;2.90;;;14.40;99.90;;;;;;477701;248;28859;-76
2021/09/28 09:36:28;;;;;;;4.30;2.50;;;14.40;99.90;;;;;;477694;248;28794;-77
2021/09/28 09:38:29;;;;;;;3.10;2.40;;;14.40;99.90;;;;;;477703;248;28790;-76
2021/09/28 09:40:31;;;;;;;2.67;2.17;;;14.50;99.90;;;;;;477700;248;28758;-76
2021/09/28 09:42:32;;;;;;;4.20;2.17;;;14.60;99.90;;;;;;477709;248;28918;-76
2021/09/28 09:44:33;;;;;;;3.10;2.17;;;14.80;99.90;;;;;;477754;248;28884;-76
2021/09/28 09:46:35;;;;;;;5.10;2.17;;;14.90;99.90;;;;;;477726;248;28768;-76
2021/09/28 09:48:36;;;;;;;3.77;2.33;;;15.10;99.90;;;;;;477710;248;28861;-76
2021/09/28 09:50:38;;;;;;;5.97;2.20;;;15.20;99.90;;;;;;477724;248;28792;-76
2021/09/28 09:52:38;;;;;;;3.43;1.90;;;15.20;99.90;;;;;;477630;248;28850;-76
2021/09/28 09:54:40;;;;;;;2.93;1.90;;;15.20;99.90;;;;;;477707;248;28815;-76
2021/09/28 09:56:41;;;;;;;5.47;1.90;;;14.90;99.90;;;;;;477680;248;28833;-77
2021/09/28 09:58:42;;;;;;;6.10;2.37;;;14.70;99.90;;;;;;477723;248;29348;-76
2021/09/28 10:00:43;;;;;;;4.60;1.73;;;14.90;99.90;;;;;;477694;248;29348;-75
2021/09/28 10:02:45;;;;;;;4.03;2.20;;;15.20;99.90;;;;;;477737;248;29273;-77
2021/09/28 10:04:47;;;;;;;3.97;1.70;;;15.20;99.90;;;;;;477725;248;29315;-76
2021/09/28 10:06:47;;;;;;;2.17;1.77;;;15.40;99.90;;;;;;477685;248;28853;-76
2021/09/28 10:08:48;;;;;;;3.13;1.67;;;15.60;99.90;;;;;;477706;248;28867;-77
2021/09/28 10:10:50;;;;;;;2.60;2.00;;;15.50;99.90;;;;;;477723;248;28922;-75
2021/09/28 10:12:51;;;;;;;2.20;1.73;;;15.30;99.90;;;;;;477723;248;28753;-76
2021/09/28 10:14:52;;;;;;;2.23;2.03;;;15.30;99.90;;;;;;477692;248;28816;-76
2021/09/28 10:16:54;;;;;;;3.30;2.10;;;15.00;99.90;;;;;;477712;248;28763;-76
2021/09/28 10:18:55;;;;;;;2.33;2.10;;;15.00;99.90;;;;;;477698;248;28780;-77
2021/09/28 10:20:56;;;;;;;2.63;1.93;;;15.10;99.90;;;;;;477709;248;28886;-76
2021/09/28 10:22:57;;;;;;;2.77;1.40;;;15.20;99.90;;;;;;477715;248;28754;-76
2021/09/28 10:24:58;;;;;;;2.73;2.37;;;15.30;99.90;;;;;;477695;248;29398;-76
2021/09/28 10:27:00;;;;;;;4.20;2.40;;;15.10;99.90;;;;;;477687;248;29403;-76
2021/09/28 10:29:01;;;;;;;3.80;2.33;;;15.10;99.90;;;;;;477693;248;29304;-76
2021/09/28 10:31:02;;;;;;;2.40;2.07;;;14.90;99.90;;;;;;477698;248;28792;-76
2021/09/28 10:33:03;;;;;;;3.20;2.23;;;15.00;99.90;;;;;;477703;248;28764;-76